createdAt,value
2023-02-06T00:01:10.646Z,25.30
2023-02-06T00:05:22.207Z,24.10
2023-02-06T00:09:29.587Z,24.50
2023-02-06T00:13:37.805Z,21.80
2023-02-06T00:17:45.525Z,21.80
2023-02-06T00:21:53.235Z,21.80
2023-02-06T00:26:02.027Z,20.30
2023-02-06T00:30:11.196Z,18.00
2023-02-06T00:34:18.947Z,17.20
2023-02-06T00:38:26.306Z,16.20
2023-02-06T00:42:33.635Z,16.40
2023-02-06T00:46:42.204Z,17.10
2023-02-06T00:50:51.237Z,17.80
2023-02-06T00:54:58.926Z,16.90
2023-02-06T00:59:06.618Z,17.30
2023-02-06T01:03:14.158Z,14.60
2023-02-06T01:07:21.501Z,15.20
2023-02-06T01:11:29.103Z,16.00
2023-02-06T01:15:36.811Z,15.50
2023-02-06T01:19:44.710Z,14.70
2023-02-06T01:23:53.565Z,13.50
2023-02-06T01:28:02.362Z,12.80
2023-02-06T01:32:09.873Z,14.10
2023-02-06T01:36:18.569Z,13.90
2023-02-06T01:40:26.598Z,15.70
2023-02-06T01:44:36.680Z,15.80
2023-02-06T01:48:46.205Z,15.00
2023-02-06T01:52:54.679Z,16.80
2023-02-06T01:57:04.872Z,15.40
2023-02-06T02:01:12.450Z,15.50
2023-02-06T02:05:21.106Z,14.70
2023-02-06T02:09:29.383Z,16.70
2023-02-06T02:13:38.466Z,15.20
2023-02-06T02:17:53.827Z,15.30
2023-02-06T02:22:19.641Z,18.60
2023-02-06T02:26:58.257Z,21.40
2023-02-06T02:31:24.414Z,20.10
2023-02-06T02:35:37.773Z,19.00
2023-02-06T02:39:48.801Z,19.20
2023-02-06T02:44:00.122Z,20.10
2023-02-06T02:48:10.464Z,17.50
2023-02-06T02:52:19.786Z,18.50
2023-02-06T02:56:30.106Z,20.40
2023-02-06T03:00:41.196Z,21.60
2023-02-06T03:04:51.456Z,24.00
2023-02-06T03:09:05.006Z,24.00
2023-02-06T03:13:17.690Z,25.70
2023-02-06T03:17:32.779Z,24.60
2023-02-06T03:21:42.600Z,22.30
2023-02-06T03:25:52.738Z,21.80
2023-02-06T03:30:02.162Z,21.60
2023-02-06T03:34:13.697Z,23.10
2023-02-06T03:38:21.462Z,21.30
2023-02-06T03:42:30.320Z,21.30
2023-02-06T03:46:39.774Z,22.40
2023-02-06T03:50:50.358Z,26.00
2023-02-06T03:55:02.596Z,29.50
2023-02-06T03:59:11.123Z,27.70
2023-02-06T04:03:20.114Z,26.20
2023-02-06T04:07:29.060Z,24.70
2023-02-06T04:11:36.989Z,23.10
2023-02-06T04:15:44.626Z,22.80
2023-02-06T04:19:52.164Z,21.30
2023-02-06T04:24:00.869Z,21.50
2023-02-06T04:28:09.215Z,21.30
2023-02-06T04:32:17.131Z,22.80
2023-02-06T04:36:24.733Z,27.20
2023-02-06T04:40:32.247Z,26.30
2023-02-06T04:44:40.647Z,26.50
2023-02-06T04:48:48.343Z,21.10
2023-02-06T04:52:55.935Z,21.40
2023-02-06T04:57:05.077Z,20.00
2023-02-06T05:01:12.743Z,21.50
2023-02-06T05:05:20.530Z,19.90
2023-02-06T05:09:28.570Z,20.00
2023-02-06T05:13:36.967Z,17.70
2023-02-06T05:17:45.822Z,18.50
2023-02-06T05:21:57.103Z,20.90
2023-02-06T05:26:06.128Z,22.60
2023-02-06T05:30:15.770Z,21.60
2023-02-06T05:34:23.581Z,21.00
2023-02-06T05:38:31.388Z,22.40
2023-02-06T05:42:39.010Z,20.50
2023-02-06T05:46:48.620Z,19.20
2023-02-06T05:50:56.567Z,18.10
2023-02-06T05:55:04.329Z,16.80
2023-02-06T05:59:12.134Z,18.20
2023-02-06T06:03:19.496Z,17.30
2023-02-06T06:07:26.799Z,17.40
2023-02-06T06:11:34.697Z,19.50
2023-02-06T06:15:42.447Z,20.50
2023-02-06T06:19:50.434Z,21.00
2023-02-06T06:23:58.444Z,19.50
2023-02-06T06:28:06.714Z,18.10
2023-02-06T06:32:14.085Z,17.80
2023-02-06T06:36:21.556Z,16.60
2023-02-06T06:40:29.783Z,16.40
2023-02-06T06:44:37.492Z,17.20
2023-02-06T06:48:45.727Z,19.50
2023-02-06T06:52:53.526Z,22.10
2023-02-06T06:57:01.259Z,24.80
2023-02-06T07:01:10.097Z,25.10
2023-02-06T07:05:17.913Z,23.70
2023-02-06T07:09:25.824Z,24.10
2023-02-06T07:13:33.423Z,23.80
2023-02-06T07:17:41.045Z,21.20
2023-02-06T07:21:59.222Z,23.80
2023-02-06T07:26:08.331Z,28.40
2023-02-06T07:30:24.203Z,30.30
2023-02-06T07:34:39.161Z,30.30
2023-02-06T07:38:48.440Z,27.60
2023-02-06T07:43:00.402Z,23.90
2023-02-06T07:47:15.539Z,27.10
2023-02-06T07:51:27.997Z,28.80
2023-02-06T07:55:38.557Z,26.20
2023-02-06T07:59:46.403Z,21.00
2023-02-06T08:04:04.424Z,19.20
2023-02-06T08:08:18.895Z,17.80
2023-02-06T08:12:27.039Z,16.50
2023-02-06T08:16:34.662Z,16.90
2023-02-06T08:20:45.319Z,12.70
2023-02-06T08:24:55.524Z,11.70
2023-02-06T08:29:14.565Z,11.60
2023-02-06T08:33:23.527Z,13.20
2023-02-06T08:37:34.961Z,14.40
2023-02-06T08:41:46.451Z,13.50
2023-02-06T08:45:56.224Z,11.70
2023-02-06T08:50:07.697Z,11.30
2023-02-06T08:54:17.609Z,11.20
2023-02-06T08:58:30.170Z,11.00
2023-02-06T09:02:40.018Z,9.60
2023-02-06T09:06:49.306Z,9.40
2023-02-06T09:10:57.856Z,9.90
2023-02-06T09:15:07.017Z,8.70
2023-02-06T09:19:16.504Z,9.00
2023-02-06T09:23:24.463Z,9.00
2023-02-06T09:27:32.266Z,8.80
2023-02-06T09:31:41.448Z,6.30
2023-02-06T09:35:49.447Z,5.30
2023-02-06T09:39:56.841Z,4.40
2023-02-06T09:44:13.018Z,4.20
2023-02-06T09:48:24.213Z,4.50
2023-02-06T09:52:53.420Z,4.20
2023-02-06T09:57:06.018Z,4.40
2023-02-06T10:01:20.656Z,4.40
2023-02-06T10:05:35.014Z,4.30
2023-02-06T10:09:45.466Z,4.20
2023-02-06T10:13:55.776Z,5.10
2023-02-06T10:18:09.331Z,5.60
2023-02-06T10:22:21.461Z,3.90
2023-02-06T10:26:31.013Z,4.50
2023-02-06T10:31:01.804Z,5.20
2023-02-06T10:35:33.502Z,5.40
2023-02-06T10:39:53.013Z,5.60
2023-02-06T10:44:04.110Z,6.00
2023-02-06T10:48:18.328Z,5.40
2023-02-06T10:52:28.582Z,5.90
2023-02-06T10:56:41.033Z,5.80
2023-02-06T11:00:49.499Z,5.70
2023-02-06T11:05:05.429Z,5.00
2023-02-06T11:09:13.453Z,5.10
2023-02-06T11:13:28.658Z,5.70
2023-02-06T11:17:39.339Z,5.50
2023-02-06T11:21:56.524Z,4.90
2023-02-06T11:26:14.390Z,6.20
2023-02-06T11:30:38.319Z,5.40
2023-02-06T11:34:54.906Z,5.10
2023-02-06T11:39:06.218Z,5.10
2023-02-06T11:43:22.821Z,5.20
2023-02-06T11:47:35.049Z,4.50
2023-02-06T11:51:52.977Z,4.50
2023-02-06T11:56:06.527Z,4.30
2023-02-06T12:00:24.856Z,4.80
2023-02-06T12:04:35.683Z,4.70
2023-02-06T12:08:52.576Z,5.40
2023-02-06T12:13:06.485Z,5.50
2023-02-06T12:17:21.972Z,6.70
2023-02-06T12:21:36.566Z,6.40
2023-02-06T12:25:44.984Z,6.60
2023-02-06T12:30:03.319Z,6.90
2023-02-06T12:34:18.585Z,5.70
2023-02-06T12:38:32.066Z,6.30
2023-02-06T12:42:43.240Z,6.70
2023-02-06T12:46:56.739Z,5.70
2023-02-06T12:51:11.570Z,5.30
2023-02-06T12:55:24.260Z,5.50
2023-02-06T12:59:58.167Z,5.60
2023-02-06T13:04:16.049Z,7.00
2023-02-06T13:08:26.888Z,6.50
2023-02-06T13:12:35.675Z,6.80
2023-02-06T13:16:51.716Z,6.20
2023-02-06T13:21:19.463Z,6.00
2023-02-06T13:25:55.802Z,6.50
2023-02-06T13:30:42.707Z,7.80
2023-02-06T13:34:57.699Z,6.10
2023-02-06T13:39:24.398Z,6.90
2023-02-06T13:43:32.459Z,6.90
2023-02-06T13:48:07.255Z,6.10
2023-02-06T13:52:19.979Z,6.60
2023-02-06T13:56:45.724Z,5.80
2023-02-06T14:00:54.875Z,6.30
2023-02-06T14:05:03.641Z,6.90
2023-02-06T14:09:30.792Z,6.40
2023-02-06T14:13:59.261Z,6.30
2023-02-06T14:18:29.532Z,7.20
2023-02-06T14:22:43.734Z,6.50
2023-02-06T14:27:01.138Z,7.30
2023-02-06T14:31:16.557Z,7.50
2023-02-06T14:35:47.510Z,7.90
2023-02-06T14:39:56.091Z,8.30
2023-02-06T14:44:03.857Z,7.90
2023-02-06T14:48:22.276Z,7.00
2023-02-06T14:52:31.234Z,8.00
2023-02-06T14:56:40.625Z,9.10
2023-02-06T15:00:49.116Z,10.20
2023-02-06T15:04:56.957Z,10.10
2023-02-06T15:09:06.477Z,9.30
2023-02-06T15:13:24.277Z,9.30
2023-02-06T15:17:34.273Z,10.20
2023-02-06T15:21:44.361Z,9.40
2023-02-06T15:26:00.953Z,9.30
2023-02-06T15:30:19.692Z,9.40
2023-02-06T15:34:28.554Z,10.10
2023-02-06T15:38:37.484Z,9.60
2023-02-06T15:42:45.965Z,10.40
2023-02-06T15:46:57.544Z,9.70
2023-02-06T15:51:17.971Z,9.60
2023-02-06T15:55:28.261Z,9.00
2023-02-06T15:59:38.289Z,10.00
2023-02-06T16:03:46.505Z,9.50
2023-02-06T16:07:59.641Z,9.50
2023-02-06T16:12:07.866Z,11.20
2023-02-06T16:16:24.761Z,10.80
2023-02-06T16:20:40.314Z,10.30
2023-02-06T16:24:50.464Z,10.30
2023-02-06T16:29:02.831Z,8.90
2023-02-06T16:33:21.749Z,8.60
2023-02-06T16:37:32.612Z,8.80
2023-02-06T16:41:42.874Z,10.40
2023-02-06T16:45:50.951Z,9.80
2023-02-06T16:49:59.302Z,10.10
2023-02-06T16:54:09.627Z,10.80
2023-02-06T16:58:20.475Z,9.30
2023-02-06T17:02:29.898Z,10.70
2023-02-06T17:06:39.071Z,10.30
2023-02-06T17:10:47.349Z,10.20
2023-02-06T17:14:56.294Z,10.00
2023-02-06T17:19:04.137Z,11.10
2023-02-06T17:23:22.402Z,12.90
2023-02-06T17:27:30.525Z,16.70
2023-02-06T17:31:38.816Z,16.10
2023-02-06T17:35:46.305Z,16.60
2023-02-06T17:39:55.756Z,13.70
2023-02-06T17:44:03.888Z,14.30
2023-02-06T17:48:12.111Z,13.80
2023-02-06T17:52:21.940Z,13.90
2023-02-06T17:56:30.115Z,12.40
2023-02-06T18:00:38.874Z,10.60
2023-02-06T18:04:48.907Z,11.20
2023-02-06T18:08:56.255Z,10.50
2023-02-06T18:13:04.109Z,10.60
2023-02-06T18:17:13.213Z,9.80
2023-02-06T18:21:25.278Z,11.80
2023-02-06T18:25:33.168Z,14.90
2023-02-06T18:29:49.684Z,25.50
2023-02-06T18:33:58.936Z,33.60
2023-02-06T18:38:10.083Z,36.10
2023-02-06T18:42:35.596Z,30.80
2023-02-06T18:46:44.084Z,32.30
2023-02-06T18:50:52.423Z,28.10
2023-02-06T18:55:00.253Z,31.00
2023-02-06T18:59:08.966Z,28.00
2023-02-06T19:03:17.467Z,32.10
2023-02-06T19:07:25.203Z,32.00
2023-02-06T19:11:33.126Z,25.00
2023-02-06T19:15:41.519Z,18.40
2023-02-06T19:19:49.826Z,20.00
2023-02-06T19:23:59.674Z,20.50
2023-02-06T19:28:07.944Z,25.50
2023-02-06T19:32:17.298Z,28.40
2023-02-06T19:36:26.486Z,27.40
2023-02-06T19:40:35.800Z,27.60
2023-02-06T19:44:45.092Z,24.80
2023-02-06T19:48:54.177Z,25.90
2023-02-06T19:53:02.309Z,26.10
2023-02-06T19:57:10.261Z,25.00
2023-02-06T20:01:19.595Z,26.50
2023-02-06T20:05:28.181Z,22.70
2023-02-06T20:09:36.736Z,21.30
2023-02-06T20:13:44.592Z,19.90
2023-02-06T20:17:53.901Z,20.00
2023-02-06T20:22:04.570Z,20.40
2023-02-06T20:26:12.725Z,19.80
2023-02-06T20:30:22.455Z,21.40
2023-02-06T20:34:31.326Z,20.60
2023-02-06T20:38:41.679Z,21.20
2023-02-06T20:42:49.540Z,22.10
2023-02-06T20:46:57.475Z,23.30
2023-02-06T20:51:07.690Z,25.20
2023-02-06T20:55:15.418Z,24.90
2023-02-06T20:59:24.550Z,23.50
2023-02-06T21:03:32.243Z,24.90
2023-02-06T21:07:40.745Z,24.60
2023-02-06T21:11:50.505Z,25.40
2023-02-06T21:15:59.773Z,25.80
2023-02-06T21:20:10.051Z,23.70
2023-02-06T21:24:19.481Z,23.60
2023-02-06T21:28:27.864Z,22.20
2023-02-06T21:32:35.621Z,23.30
2023-02-06T21:36:44.089Z,29.90
2023-02-06T21:40:51.976Z,37.30
2023-02-06T21:44:59.730Z,35.20
2023-02-06T21:49:09.420Z,44.60
2023-02-06T21:53:17.392Z,50.60
2023-02-06T21:57:24.948Z,54.90
2023-02-06T22:01:35.161Z,58.80
2023-02-06T22:05:43.315Z,58.00
2023-02-06T22:09:50.934Z,57.30
2023-02-06T22:14:01.576Z,64.30
2023-02-06T22:18:10.754Z,56.20
2023-02-06T22:22:19.685Z,53.70
2023-02-06T22:26:28.092Z,52.60
2023-02-06T22:30:36.839Z,56.20
2023-02-06T22:34:44.897Z,54.50
2023-02-06T22:38:56.797Z,57.40
2023-02-06T22:43:04.872Z,58.60
2023-02-06T22:47:13.353Z,54.40
2023-02-06T22:51:21.397Z,47.30
2023-02-06T22:55:49.922Z,42.50
2023-02-06T22:59:58.069Z,38.00
2023-02-06T23:04:09.468Z,39.20
2023-02-06T23:08:19.493Z,37.20
2023-02-06T23:12:28.029Z,35.20
2023-02-06T23:16:38.942Z,32.30
2023-02-06T23:20:46.970Z,31.70
2023-02-06T23:24:56.882Z,33.90
2023-02-06T23:29:06.366Z,31.10
2023-02-06T23:33:14.550Z,37.60
2023-02-06T23:37:22.356Z,36.70
2023-02-06T23:41:30.702Z,38.10
2023-02-06T23:45:41.445Z,37.50
2023-02-06T23:49:49.736Z,37.10
2023-02-06T23:53:57.493Z,38.30
2023-02-06T23:58:06.406Z,37.90
